EXS77L LGKR-EGGP
Flight info
| Callsign | EXS77L |
|---|---|
| Flight time | N/A |
| Altitude | 34000 |
| Route | OLGAT DCT ABADI DCT CRAYE DCT GISAM DCT UVODI DCT ZDA DCT MONFA DCT BAKOR DCT SOTOV DCT XEBIX DCT USUDO DCT LIRSU DCT SPI DCT DENUT L610 LAM UN57 WELIN T420 ELVOS |
| Aircraft | A321/M-SDE3FGHIRWY/LB1 |
Departure
| Time | N/A |
|---|---|
| Airport | Corfu Ioannis Kapodistrias International Airport (LGKR) |
Arrival
| Time | 2026-05-03 20:31 |
|---|---|
| Airport | Liverpool John Lennon Airport (EGGP) |
| Time | Latitude | Longitude | Altitude | Speed | Heading |
|---|---|---|---|---|---|
| 2026-05-03 20:15 | 53.17431 | -2.95460 | 5510 ft | 271 kts | 281° |
| 2026-05-03 20:15 | 53.17724 | -2.98568 | 5357 ft | 271 kts | 280° |
| 2026-05-03 20:15 | 53.18012 | -3.01672 | 5161 ft | 270 kts | 280° |
| 2026-05-03 20:15 | 53.18297 | -3.04774 | 4961 ft | 270 kts | 280° |
| 2026-05-03 20:16 | 53.18577 | -3.07819 | 4750 ft | 269 kts | 281° |
| 2026-05-03 20:16 | 53.18884 | -3.10898 | 4542 ft | 268 kts | 286° |
| 2026-05-03 20:16 | 53.19779 | -3.13506 | 4328 ft | 255 kts | 322° |
| 2026-05-03 20:16 | 53.21320 | -3.14641 | 4115 ft | 239 kts | 358° |
| 2026-05-03 20:17 | 53.22942 | -3.14477 | 3918 ft | 230 kts | 7° |
| 2026-05-03 20:17 | 53.24516 | -3.14202 | 3718 ft | 224 kts | 7° |
| 2026-05-03 20:17 | 53.26021 | -3.13941 | 3525 ft | 213 kts | 7° |
| 2026-05-03 20:17 | 53.27462 | -3.13694 | 3339 ft | 203 kts | 7° |
| 2026-05-03 20:18 | 53.28862 | -3.13455 | 3210 ft | 199 kts | 8° |
| 2026-05-03 20:18 | 53.30214 | -3.13225 | 3085 ft | 197 kts | 8° |
| 2026-05-03 20:18 | 53.31430 | -3.12444 | 3014 ft | 178 kts | 40° |
| 2026-05-03 20:18 | 53.32098 | -3.10794 | 2891 ft | 171 kts | 72° |
| 2026-05-03 20:19 | 53.32239 | -3.08835 | 2710 ft | 169 kts | 84° |
| 2026-05-03 20:19 | 53.32329 | -3.06908 | 2499 ft | 164 kts | 83° |
| 2026-05-03 20:19 | 53.32419 | -3.05031 | 2274 ft | 160 kts | 83° |
| 2026-05-03 20:19 | 53.32505 | -3.03225 | 2075 ft | 155 kts | 83° |
| 2026-05-03 20:20 | 53.32585 | -3.01537 | 1875 ft | 143 kts | 83° |
| 2026-05-03 20:20 | 53.32662 | -2.99900 | 1677 ft | 135 kts | 82° |
| 2026-05-03 20:20 | 53.32737 | -2.98347 | 1489 ft | 134 kts | 82° |
| 2026-05-03 20:20 | 53.32810 | -2.96787 | 1298 ft | 135 kts | 82° |
| 2026-05-03 20:21 | 53.32882 | -2.95218 | 1107 ft | 136 kts | 83° |
| 2026-05-03 20:21 | 53.32955 | -2.93642 | 920 ft | 136 kts | 82° |
| 2026-05-03 20:21 | 53.33029 | -2.92082 | 734 ft | 137 kts | 84° |
| 2026-05-03 20:21 | 53.33105 | -2.90481 | 545 ft | 139 kts | 83° |
| 2026-05-03 20:22 | 53.33180 | -2.88891 | 376 ft | 137 kts | 83° |
| 2026-05-03 20:22 | 53.33254 | -2.87298 | 203 ft | 137 kts | 83° |
| 2026-05-03 20:22 | 53.33326 | -2.85819 | 86 ft | 130 kts | 85° |
| 2026-05-03 20:22 | 53.33415 | -2.84360 | 199 ft | 145 kts | 84° |
| 2026-05-03 20:23 | 53.33456 | -2.82793 | 1065 ft | 141 kts | 86° |
| 2026-05-03 20:23 | 53.33401 | -2.81120 | 1706 ft | 154 kts | 103° |
| 2026-05-03 20:23 | 53.32659 | -2.79642 | 1910 ft | 188 kts | 147° |
| 2026-05-03 20:23 | 53.31291 | -2.79204 | 2140 ft | 218 kts | 184° |
| 2026-05-03 20:24 | 53.29825 | -2.80251 | 2372 ft | 246 kts | 221° |
| 2026-05-03 20:24 | 53.28780 | -2.82541 | 2487 ft | 250 kts | 245° |
| 2026-05-03 20:24 | 53.28103 | -2.85211 | 2510 ft | 249 kts | 252° |
| 2026-05-03 20:24 | 53.27663 | -2.87995 | 2512 ft | 248 kts | 259° |
| 2026-05-03 20:25 | 53.27309 | -2.90816 | 2509 ft | 247 kts | 260° |
| 2026-05-03 20:25 | 53.26965 | -2.93626 | 2506 ft | 247 kts | 260° |
| 2026-05-03 20:25 | 53.26619 | -2.96438 | 2521 ft | 247 kts | 260° |
| 2026-05-03 20:25 | 53.26278 | -2.99224 | 2521 ft | 240 kts | 260° |
| 2026-05-03 20:26 | 53.26084 | -3.01914 | 2540 ft | 224 kts | 272° |
| 2026-05-03 20:26 | 53.26120 | -3.04453 | 2521 ft | 214 kts | 275° |
| 2026-05-03 20:26 | 53.26188 | -3.06928 | 2524 ft | 212 kts | 275° |
| 2026-05-03 20:26 | 53.26500 | -3.09225 | 2525 ft | 193 kts | 304° |
| 2026-05-03 20:27 | 53.27467 | -3.10572 | 2529 ft | 177 kts | 345° |
| 2026-05-03 20:27 | 53.28657 | -3.10915 | 2532 ft | 172 kts | 358° |
| 2026-05-03 20:27 | 53.29833 | -3.10862 | 2527 ft | 168 kts | 15° |
| 2026-05-03 20:27 | 53.30866 | -3.10182 | 2531 ft | 166 kts | 33° |
| 2026-05-03 20:28 | 53.31742 | -3.08860 | 2529 ft | 164 kts | 53° |
| 2026-05-03 20:28 | 53.32256 | -3.07160 | 2468 ft | 165 kts | 72° |
| 2026-05-03 20:28 | 53.32408 | -3.05251 | 2300 ft | 165 kts | 83° |
| 2026-05-03 20:28 | 53.32497 | -3.03378 | 2113 ft | 158 kts | 83° |
| 2026-05-03 20:29 | 53.32584 | -3.01570 | 1900 ft | 155 kts | 83° |
| 2026-05-03 20:29 | 53.32666 | -2.99827 | 1692 ft | 149 kts | 82° |
| 2026-05-03 20:29 | 53.32745 | -2.98156 | 1490 ft | 140 kts | 83° |
| 2026-05-03 20:29 | 53.32821 | -2.96566 | 1304 ft | 135 kts | 83° |
| 2026-05-03 20:30 | 53.32894 | -2.95005 | 1118 ft | 133 kts | 82° |
| 2026-05-03 20:30 | 53.32965 | -2.93459 | 908 ft | 134 kts | 82° |
| 2026-05-03 20:30 | 53.33039 | -2.91896 | 732 ft | 137 kts | 83° |
| 2026-05-03 20:30 | 53.33114 | -2.90298 | 542 ft | 139 kts | 83° |
| 2026-05-03 20:31 | 53.33191 | -2.88703 | 355 ft | 137 kts | 83° |
| 2026-05-03 20:31 | 53.33263 | -2.87114 | 177 ft | 136 kts | 83° |
| 2026-05-03 20:31 | 53.33337 | -2.85571 | 82 ft | 122 kts | 85° |
| 2026-05-03 20:31 | 53.33378 | -2.84691 | 76 ft | 30 kts | 82° |
| 2026-05-03 20:32 | 53.33449 | -2.84444 | 85 ft | 21 kts | 59° |
| 2026-05-03 20:32 | 53.33508 | -2.84280 | 82 ft | 11 kts | 57° |
| 2026-05-03 20:32 | 53.33558 | -2.84299 | 71 ft | 9 kts | 292° |
| 2026-05-03 20:32 | 53.33554 | -2.84443 | 74 ft | 16 kts | 265° |
| 2026-05-03 20:33 | 53.33543 | -2.84668 | 80 ft | 23 kts | 265° |
| 2026-05-03 20:33 | 53.33529 | -2.84963 | 85 ft | 26 kts | 266° |
| 2026-05-03 20:33 | 53.33516 | -2.85261 | 85 ft | 26 kts | 265° |
| 2026-05-03 20:33 | 53.33503 | -2.85547 | 84 ft | 21 kts | 265° |
| 2026-05-03 20:34 | 53.33493 | -2.85759 | 84 ft | 15 kts | 265° |
| 2026-05-03 20:34 | 53.33497 | -2.85903 | 89 ft | 11 kts | 302° |
| 2026-05-03 20:34 | 53.33563 | -2.85939 | 89 ft | 10 kts | 349° |
| 2026-05-03 20:34 | 53.33594 | -2.86022 | 90 ft | 9 kts | 270° |
| 2026-05-03 20:35 | 53.33590 | -2.86116 | 85 ft | 8 kts | 265° |
| 2026-05-03 20:35 | 53.33574 | -2.86185 | 91 ft | 6 kts | 214° |
| 2026-05-03 20:35 | 53.33544 | -2.86188 | 87 ft | 2 kts | 178° |
| 2026-05-03 20:35 | 53.33541 | -2.86188 | 86 ft | 0 kts | 177° |